createdAt,value
2017-11-20T00:00:18.989Z,100662.34
2017-11-20T00:02:44.809Z,100661.44
2017-11-20T00:05:11.406Z,100661.33
2017-11-20T00:07:37.199Z,100664.99
2017-11-20T00:10:02.986Z,100653.98
2017-11-20T00:12:28.764Z,100671.17
2017-11-20T00:14:54.585Z,100671.30
2017-11-20T00:17:20.368Z,100677.80
2017-11-20T00:19:46.152Z,100680.95
2017-11-20T00:22:12.920Z,100680.46
2017-11-20T00:24:38.748Z,100683.59
2017-11-20T00:27:04.530Z,100687.26
2017-11-20T00:29:30.329Z,100689.30
2017-11-20T00:31:56.123Z,100691.52
2017-11-20T00:34:21.901Z,100691.27
2017-11-20T00:36:47.687Z,100694.09
2017-11-20T00:39:13.480Z,100694.22
2017-11-20T00:41:39.274Z,100705.59
2017-11-20T00:44:11.897Z,100698.88
2017-11-20T00:46:37.685Z,100698.37
2017-11-20T00:49:03.460Z,100704.59
2017-11-20T00:51:29.277Z,100704.87
2017-11-20T00:53:55.055Z,100710.07
2017-11-20T00:56:20.846Z,100712.99
2017-11-20T00:58:46.636Z,100725.38
2017-11-20T01:01:13.417Z,100716.17
2017-11-20T01:03:39.242Z,100725.47
2017-11-20T01:06:05.031Z,100723.71
2017-11-20T01:08:30.821Z,100728.13
2017-11-20T01:10:56.645Z,100732.47
2017-11-20T01:13:23.403Z,100731.60
2017-11-20T01:15:49.227Z,100743.48
2017-11-20T01:18:15.030Z,100748.86
2017-11-20T01:20:41.742Z,100753.13
2017-11-20T01:23:07.534Z,100754.48
2017-11-20T01:25:33.924Z,100750.58
2017-11-20T01:27:59.722Z,100754.10
2017-11-20T01:30:25.508Z,100755.59
2017-11-20T01:32:51.375Z,100760.16
2017-11-20T01:35:18.085Z,100762.07
2017-11-20T01:37:43.879Z,100762.63
2017-11-20T01:40:10.647Z,100770.28
2017-11-20T01:42:36.433Z,100763.51
2017-11-20T01:45:03.208Z,100764.59
2017-11-20T01:47:29.032Z,100771.62
2017-11-20T01:49:55.693Z,100773.61
2017-11-20T01:52:21.489Z,100774.02
2017-11-20T01:54:47.837Z,100766.92
2017-11-20T01:57:13.666Z,100776.89
2017-11-20T01:59:39.463Z,100777.59
2017-11-20T02:02:05.250Z,100784.23
2017-11-20T02:04:31.046Z,100778.19
2017-11-20T02:06:57.854Z,100776.16
2017-11-20T02:09:24.585Z,100775.08
2017-11-20T02:11:50.384Z,100777.20
2017-11-20T02:14:17.151Z,100771.84
2017-11-20T02:16:42.928Z,100778.81
2017-11-20T02:19:08.759Z,100778.50
2017-11-20T02:21:34.562Z,100779.30
2017-11-20T02:24:00.402Z,100782.72
2017-11-20T02:26:26.291Z,100790.09
2017-11-20T02:28:52.090Z,100786.82
2017-11-20T02:31:17.934Z,100792.71
2017-11-20T02:33:43.729Z,100788.49
2017-11-20T02:36:09.528Z,100792.05
2017-11-20T02:38:35.331Z,100790.27
2017-11-20T02:41:01.161Z,100794.10
2017-11-20T02:43:26.951Z,100789.23
2017-11-20T02:45:52.747Z,100796.19
2017-11-20T02:48:18.547Z,100796.75
2017-11-20T02:50:44.337Z,100796.16
2017-11-20T02:53:10.169Z,100788.74
2017-11-20T02:55:35.973Z,100786.97
2017-11-20T02:58:01.797Z,100794.56
2017-11-20T03:00:27.642Z,100797.70
2017-11-20T03:02:53.449Z,100789.47
2017-11-20T03:05:20.241Z,100786.52
2017-11-20T03:07:46.033Z,100788.25
2017-11-20T03:10:11.847Z,100786.44
2017-11-20T03:12:37.645Z,100791.25
2017-11-20T03:15:03.451Z,100794.03
2017-11-20T03:17:29.251Z,100784.84
2017-11-20T03:19:55.049Z,100778.58
2017-11-20T03:22:20.855Z,100790.28
2017-11-20T03:24:46.665Z,100788.88
2017-11-20T03:27:12.501Z,100787.49
2017-11-20T03:29:38.325Z,100793.13
2017-11-20T03:32:04.128Z,100799.61
2017-11-20T03:34:29.918Z,100804.45
2017-11-20T03:36:55.717Z,100800.62
2017-11-20T03:39:21.517Z,100800.58
2017-11-20T03:41:47.309Z,100798.49
2017-11-20T03:44:13.171Z,100796.47
2017-11-20T03:46:39.003Z,100793.27
2017-11-20T03:49:04.806Z,100800.52
2017-11-20T03:51:31.523Z,100801.97
2017-11-20T03:53:57.321Z,100806.53
2017-11-20T03:56:23.125Z,100810.27
2017-11-20T03:58:48.925Z,100811.86
2017-11-20T04:01:21.793Z,100802.53
2017-11-20T04:03:47.582Z,100806.70
2017-11-20T04:06:13.386Z,100798.14
2017-11-20T04:08:39.184Z,100806.08
2017-11-20T04:11:04.987Z,100798.42
2017-11-20T04:13:30.777Z,100803.72
2017-11-20T04:15:56.576Z,100803.23
2017-11-20T04:18:22.375Z,100789.65
2017-11-20T04:20:48.181Z,100800.27
2017-11-20T04:23:13.979Z,100797.27
2017-11-20T04:25:39.770Z,100794.80
2017-11-20T04:28:05.560Z,100796.92
2017-11-20T04:30:31.409Z,100796.75
2017-11-20T04:32:57.194Z,100793.94
2017-11-20T04:35:23.025Z,100792.13
2017-11-20T04:37:48.818Z,100785.02
2017-11-20T04:40:14.605Z,100783.03
2017-11-20T04:42:40.405Z,100782.30
2017-11-20T04:45:06.206Z,100788.08
2017-11-20T04:47:31.989Z,100790.97
2017-11-20T04:49:57.785Z,100786.66
2017-11-20T04:52:23.572Z,100785.19
2017-11-20T04:54:49.364Z,100784.03
2017-11-20T04:57:15.206Z,100784.00
2017-11-20T04:59:41.006Z,100784.64
2017-11-20T05:02:06.798Z,100789.52
2017-11-20T05:04:32.581Z,100790.20
2017-11-20T05:06:58.362Z,100792.02
2017-11-20T05:09:24.161Z,100782.33
2017-11-20T05:11:49.954Z,100785.78
2017-11-20T05:14:15.750Z,100781.98
2017-11-20T05:16:41.600Z,100787.77
2017-11-20T05:19:07.392Z,100783.11
2017-11-20T05:21:33.235Z,100777.91
2017-11-20T05:23:59.017Z,100780.24
2017-11-20T05:26:24.813Z,100783.79
2017-11-20T05:28:50.627Z,100782.47
2017-11-20T05:31:16.422Z,100788.11
2017-11-20T05:33:42.229Z,100792.05
2017-11-20T05:36:08.078Z,100787.06
2017-11-20T05:38:33.873Z,100789.95
2017-11-20T05:40:59.672Z,100787.52
2017-11-20T05:43:25.460Z,100787.92
2017-11-20T05:45:51.501Z,100796.45
2017-11-20T05:48:17.293Z,100805.02
2017-11-20T05:50:43.122Z,100802.14
2017-11-20T05:53:08.949Z,100801.96
2017-11-20T05:55:34.768Z,100801.12
2017-11-20T05:58:00.594Z,100799.87
2017-11-20T06:00:26.393Z,100804.13
2017-11-20T06:02:52.325Z,100816.66
2017-11-20T06:05:18.142Z,100819.55
2017-11-20T06:07:43.943Z,100832.30
2017-11-20T06:10:09.741Z,100832.68
2017-11-20T06:12:35.545Z,100828.95
2017-11-20T06:15:01.413Z,100824.38
2017-11-20T06:17:27.212Z,100829.58
2017-11-20T06:19:53.003Z,100835.11
2017-11-20T06:22:18.813Z,100834.27
2017-11-20T06:24:44.588Z,100832.85
2017-11-20T06:27:10.397Z,100830.37
2017-11-20T06:29:36.179Z,100839.16
2017-11-20T06:32:02.005Z,100845.49
2017-11-20T06:34:27.801Z,100833.70
2017-11-20T06:36:53.616Z,100837.16
2017-11-20T06:39:19.401Z,100845.68
2017-11-20T06:41:45.198Z,100835.83
2017-11-20T06:44:11.021Z,100841.73
2017-11-20T06:46:36.808Z,100840.44
2017-11-20T06:49:02.637Z,100838.21
2017-11-20T06:51:28.464Z,100848.93
2017-11-20T06:53:54.257Z,100846.34
2017-11-20T06:56:20.033Z,100849.31
2017-11-20T06:58:45.858Z,100845.31
2017-11-20T07:01:11.661Z,100855.18
2017-11-20T07:03:37.449Z,100844.58
2017-11-20T07:06:03.228Z,100858.13
2017-11-20T07:08:29.050Z,100859.73
2017-11-20T07:10:54.861Z,100861.16
2017-11-20T07:13:20.719Z,100857.43
2017-11-20T07:15:46.513Z,100864.96
2017-11-20T07:18:12.294Z,100865.24
2017-11-20T07:20:38.086Z,100865.27
2017-11-20T07:23:03.878Z,100867.71
2017-11-20T07:25:35.697Z,100874.23
2017-11-20T07:28:01.485Z,100869.49
2017-11-20T07:30:33.509Z,100874.75
2017-11-20T07:32:59.296Z,100874.97
2017-11-20T07:35:25.132Z,100878.45
2017-11-20T07:40:49.034Z,100875.83
2017-11-20T07:43:14.822Z,100878.86
2017-11-20T07:45:40.636Z,100880.25
2017-11-20T07:48:06.415Z,100881.19
2017-11-20T07:50:32.185Z,100882.28
2017-11-20T07:52:57.963Z,100886.08
2017-11-20T07:55:23.741Z,100888.58
2017-11-20T07:57:49.553Z,100888.76
2017-11-20T08:00:15.336Z,100891.34
2017-11-20T08:02:41.117Z,100893.46
2017-11-20T08:05:06.963Z,100897.64
2017-11-20T08:07:32.748Z,100900.56
2017-11-20T08:09:58.543Z,100905.80
2017-11-20T08:12:24.356Z,100907.43
2017-11-20T08:14:50.133Z,100912.73
2017-11-20T08:17:15.961Z,100907.81
2017-11-20T08:19:41.736Z,100906.17
2017-11-20T08:22:07.607Z,100905.66
2017-11-20T08:24:33.381Z,100907.74
2017-11-20T08:26:59.165Z,100901.09
2017-11-20T08:29:24.954Z,100907.88
2017-11-20T08:31:50.751Z,100895.97
2017-11-20T08:34:16.637Z,100899.80
2017-11-20T08:36:42.423Z,100898.02
2017-11-20T08:39:08.243Z,100904.13
2017-11-20T08:41:34.030Z,100896.84
2017-11-20T08:43:59.850Z,100897.09
2017-11-20T08:46:25.625Z,100894.78
2017-11-20T08:48:51.414Z,100900.11
2017-11-20T08:51:17.197Z,100898.44
2017-11-20T08:53:42.980Z,100903.28
2017-11-20T08:56:08.767Z,100903.94
2017-11-20T08:58:34.548Z,100903.21
2017-11-20T09:01:00.329Z,100902.34
2017-11-20T09:03:26.120Z,100897.81
2017-11-20T09:05:51.902Z,100903.53
2017-11-20T09:08:17.721Z,100903.77
2017-11-20T09:10:43.522Z,100904.19
2017-11-20T09:13:09.316Z,100905.30
2017-11-20T09:15:35.097Z,100907.40
2017-11-20T09:18:00.909Z,100914.44
2017-11-20T09:20:26.756Z,100913.56
2017-11-20T09:22:52.554Z,100917.19
2017-11-20T09:25:18.338Z,100902.55
2017-11-20T09:27:45.095Z,100916.48
2017-11-20T09:30:10.881Z,100921.37
2017-11-20T09:32:46.384Z,100916.94
2017-11-20T09:35:12.413Z,100915.55
2017-11-20T09:37:39.546Z,100921.23
2017-11-20T09:40:05.501Z,100919.10
2017-11-20T09:42:31.308Z,100914.05
2017-11-20T09:44:57.094Z,100920.28
2017-11-20T09:47:22.876Z,100918.09
2017-11-20T09:49:48.693Z,100921.54
2017-11-20T09:52:14.482Z,100918.62
2017-11-20T09:54:40.320Z,100914.44
2017-11-20T09:57:06.102Z,100913.08
2017-11-20T09:59:31.929Z,100907.81
2017-11-20T10:01:57.713Z,100906.38
2017-11-20T10:04:23.508Z,100906.77
2017-11-20T10:06:49.301Z,100911.71
2017-11-20T10:09:15.089Z,100909.80
2017-11-20T10:11:40.880Z,100904.19
2017-11-20T10:14:06.686Z,100908.96
2017-11-20T10:16:32.509Z,100907.29
2017-11-20T10:18:58.298Z,100905.92
2017-11-20T10:21:24.146Z,100910.04
2017-11-20T10:23:49.936Z,100907.25
2017-11-20T10:26:15.789Z,100901.30
2017-11-20T10:28:41.608Z,100905.78
2017-11-20T10:31:07.396Z,100907.43
2017-11-20T10:33:33.221Z,100907.05
2017-11-20T10:35:59.017Z,100907.03
2017-11-20T10:38:24.797Z,100903.66
2017-11-20T10:40:50.589Z,100905.73
2017-11-20T10:43:16.381Z,100906.27
2017-11-20T10:45:42.161Z,100900.69
2017-11-20T10:48:07.951Z,100903.06
2017-11-20T10:50:33.742Z,100899.80
2017-11-20T10:52:59.532Z,100900.88
2017-11-20T10:55:25.317Z,100897.66
2017-11-20T10:58:05.611Z,100902.50
2017-11-20T11:00:32.073Z,100892.99
2017-11-20T11:02:57.912Z,100898.16
2017-11-20T11:05:23.708Z,100897.59
2017-11-20T11:07:49.523Z,100894.84
2017-11-20T11:10:15.309Z,100902.38
2017-11-20T11:12:41.201Z,100899.94
2017-11-20T11:15:07.053Z,100890.58
2017-11-20T11:17:32.874Z,100898.16
2017-11-20T11:19:58.668Z,100895.19
2017-11-20T11:22:24.470Z,100892.84
2017-11-20T11:24:50.270Z,100899.30
2017-11-20T11:27:16.061Z,100884.66
2017-11-20T11:29:41.860Z,100881.63
2017-11-20T11:32:07.709Z,100885.92
2017-11-20T11:34:33.525Z,100884.00
2017-11-20T11:36:59.626Z,100873.61
2017-11-20T11:39:25.482Z,100878.13
2017-11-20T17:38:39.758Z,100845.03
2017-11-20T17:43:49.577Z,100840.19
2017-11-20T17:46:15.452Z,100839.78
2017-11-20T17:48:41.293Z,100842.14
2017-11-20T17:51:07.079Z,100834.59
2017-11-20T17:53:32.870Z,100838.05
2017-11-20T17:55:58.645Z,100836.34
2017-11-20T17:58:24.623Z,100828.02
2017-11-20T18:00:50.445Z,100836.38
2017-11-20T18:03:16.250Z,100831.05
2017-11-20T18:05:42.058Z,100835.09
2017-11-20T18:08:07.862Z,100835.47
2017-11-20T18:10:33.655Z,100831.01
2017-11-20T18:13:00.415Z,100831.22
2017-11-20T18:15:26.240Z,100827.66
2017-11-20T18:17:52.033Z,100826.83
2017-11-20T18:20:17.855Z,100829.44
2017-11-20T18:22:43.669Z,100823.80
2017-11-20T18:25:09.644Z,100824.21
2017-11-20T18:27:35.434Z,100819.85
2017-11-20T18:30:01.231Z,100819.36
2017-11-20T18:32:27.022Z,100821.01
2017-11-20T18:34:52.815Z,100823.58
2017-11-20T18:37:18.617Z,100822.76
2017-11-20T18:39:44.410Z,100829.23
2017-11-20T18:42:10.207Z,100832.40
2017-11-20T18:44:35.988Z,100828.12
2017-11-20T18:47:01.875Z,100833.48
2017-11-20T18:49:27.803Z,100828.11
2017-11-20T18:51:55.322Z,100831.45
2017-11-20T18:54:21.164Z,100832.52
2017-11-20T18:56:47.022Z,100828.14
2017-11-20T18:59:12.810Z,100826.92
2017-11-20T19:01:44.656Z,100826.89
2017-11-20T19:04:17.737Z,100819.33
2017-11-20T19:06:49.566Z,100824.27
2017-11-20T19:09:15.374Z,100826.71
2017-11-20T19:11:41.295Z,100824.23
2017-11-20T19:14:07.111Z,100835.19
2017-11-20T19:16:32.905Z,100833.72
2017-11-20T19:18:58.684Z,100828.80
2017-11-20T19:21:24.470Z,100825.39
2017-11-20T19:23:50.270Z,100832.70
2017-11-20T19:26:16.049Z,100827.48
2017-11-20T19:28:41.838Z,100830.61
2017-11-20T19:31:07.650Z,100834.06
2017-11-20T19:33:33.437Z,100832.19
2017-11-20T19:35:59.242Z,100833.13
2017-11-20T19:38:25.025Z,100831.52
2017-11-20T19:40:50.810Z,100832.17
2017-11-20T19:43:16.625Z,100835.22
2017-11-20T19:45:42.404Z,100835.67
2017-11-20T19:48:08.227Z,100830.27
2017-11-20T19:50:34.017Z,100828.14
2017-11-20T19:52:59.809Z,100826.85
2017-11-20T19:55:27.986Z,100818.28
2017-11-20T19:57:53.980Z,100820.42
2017-11-20T20:00:19.774Z,100824.47
2017-11-20T20:02:45.608Z,100823.80
2017-11-20T20:05:11.504Z,100823.98
2017-11-20T20:07:37.441Z,100828.97
2017-11-20T20:10:03.257Z,100829.70
2017-11-20T20:12:29.162Z,100821.59
2017-11-20T20:15:01.119Z,100828.14
2017-11-20T20:17:27.049Z,100825.06
2017-11-20T20:19:52.834Z,100821.08
2017-11-20T20:22:18.810Z,100828.03
2017-11-20T20:24:44.846Z,100823.16
2017-11-20T20:27:10.636Z,100824.41
2017-11-20T20:29:36.417Z,100824.09
2017-11-20T20:32:02.322Z,100822.07
2017-11-20T20:34:28.105Z,100816.09
2017-11-20T20:36:54.066Z,100808.56
2017-11-20T20:39:20.674Z,100810.69
2017-11-20T20:41:48.299Z,100814.14
2017-11-20T20:44:14.158Z,100811.10
2017-11-20T20:46:39.944Z,100810.48
2017-11-20T20:49:05.884Z,100804.88
2017-11-20T20:51:31.674Z,100804.42
2017-11-20T20:53:57.458Z,100800.63
2017-11-20T20:56:23.255Z,100805.95
2017-11-20T20:58:49.037Z,100800.16
2017-11-20T21:01:14.822Z,100795.01
2017-11-20T21:03:40.653Z,100798.95
2017-11-20T21:06:06.436Z,100802.66
2017-11-20T21:08:32.225Z,100804.53
2017-11-20T21:11:04.023Z,100800.20
2017-11-20T21:13:29.819Z,100804.45
2017-11-20T21:15:55.614Z,100800.09
2017-11-20T21:18:21.414Z,100796.41
2017-11-20T21:20:47.215Z,100793.05
2017-11-20T21:23:13.033Z,100792.83
2017-11-20T21:25:38.838Z,100792.34
2017-11-20T21:28:04.621Z,100782.67
2017-11-20T21:30:30.403Z,100784.53
2017-11-20T21:32:56.184Z,100786.83
2017-11-20T21:35:22.018Z,100786.14
2017-11-20T21:37:47.809Z,100774.59
2017-11-20T21:40:13.599Z,100772.73
2017-11-20T21:42:39.394Z,100777.09
2017-11-20T21:45:05.173Z,100771.70
2017-11-20T21:47:30.949Z,100765.33
2017-11-20T21:49:56.729Z,100758.42
2017-11-20T21:52:22.545Z,100755.26
2017-11-20T21:54:48.329Z,100754.91
2017-11-20T21:57:14.141Z,100756.16
2017-11-20T21:59:39.930Z,100753.67
2017-11-20T22:02:05.718Z,100747.61
2017-11-20T22:04:31.489Z,100750.81
2017-11-20T22:06:57.434Z,100750.00
2017-11-20T22:09:23.297Z,100745.20
2017-11-20T22:11:49.081Z,100739.91
2017-11-20T22:14:14.905Z,100746.08
2017-11-20T22:16:40.698Z,100744.24
2017-11-20T22:19:06.481Z,100741.38
2017-11-20T22:21:32.264Z,100738.34
2017-11-20T22:23:58.057Z,100738.66
2017-11-20T22:26:23.895Z,100728.68
2017-11-20T22:28:49.689Z,100730.08
2017-11-20T22:31:15.489Z,100735.39
2017-11-20T22:33:41.294Z,100733.42
2017-11-20T22:36:07.097Z,100735.39
2017-11-20T22:38:32.897Z,100732.33
2017-11-20T22:40:58.707Z,100729.30
2017-11-20T22:43:24.521Z,100719.09
2017-11-20T22:45:50.317Z,100713.86
2017-11-20T22:48:16.100Z,100719.11
2017-11-20T22:50:41.900Z,100723.71
2017-11-20T22:53:07.697Z,100726.63
2017-11-20T22:55:33.509Z,100728.52
2017-11-20T22:57:59.298Z,100726.05
2017-11-20T23:00:25.093Z,100723.85
2017-11-20T23:02:50.877Z,100730.79
2017-11-20T23:05:16.658Z,100725.61
2017-11-20T23:07:42.444Z,100732.55
2017-11-20T23:10:08.233Z,100730.16
2017-11-20T23:12:34.028Z,100735.87
2017-11-20T23:14:59.825Z,100742.21
2017-11-20T23:17:25.602Z,100738.00
2017-11-20T23:19:51.418Z,100736.40
2017-11-20T23:22:17.201Z,100729.72
2017-11-20T23:24:43.045Z,100725.09
2017-11-20T23:27:08.826Z,100730.62
2017-11-20T23:29:34.616Z,100731.20
2017-11-20T23:32:00.401Z,100721.59
2017-11-20T23:34:26.188Z,100716.41
2017-11-20T23:36:52.018Z,100704.42
2017-11-20T23:39:17.802Z,100703.47
2017-11-20T23:41:43.617Z,100699.28
2017-11-20T23:44:09.401Z,100708.81
2017-11-20T23:46:35.189Z,100713.66
2017-11-20T23:49:00.981Z,100717.48
2017-11-20T23:51:26.770Z,100714.87
2017-11-20T23:53:52.560Z,100710.89
2017-11-20T23:56:18.350Z,100700.67
2017-11-20T23:58:44.131Z,100692.25
